Time;durP1;ratioP1;P1;durP2;ratioP2;P2;SDS_P1;SDS_P2;PMS_P1;PMS_P2;Temp;Humidity;BMP_temperature;BMP_pressure;BME280_temperature;BME280_humidity;BME280_pressure;Samples;Min_cycle;Max_cycle;Signal;HPM_P1;HPM_P2
2022/03/22 00:00:58;;;;;;;20.40;9.97;;;;;8.60;102560.00;;;;5105714;28;20239;-67
2022/03/22 00:03:46;;;;;;;25.37;11.27;;;;;8.30;102566.00;;;;5083008;28;20264;-67
2022/03/22 00:06:33;;;;;;;18.07;10.10;;;;;8.40;102562.00;;;;5079821;28;20859;-68
2022/03/22 00:09:19;;;;;;;23.40;9.97;;;;;8.40;102566.00;;;;5053916;28;20369;-66
2022/03/22 00:12:07;;;;;;;20.70;10.13;;;;;8.50;102565.00;;;;5054807;28;20236;-67
2022/03/22 00:14:53;;;;;;;20.57;10.63;;;;;8.60;102560.00;;;;5054157;28;21007;-70
2022/03/22 00:18:00;;;;;;;21.33;10.70;;;;;8.60;102567.00;;;;5057575;28;20230;-70
2022/03/22 00:20:49;;;;;;;21.70;9.83;;;;;8.60;102565.00;;;;5082096;28;20887;-68
2022/03/22 00:23:36;;;;;;;21.47;11.90;;;;;8.50;102567.00;;;;5078894;28;20236;-70
2022/03/22 00:26:22;;;;;;;19.47;11.37;;;;;8.60;102560.00;;;;5070505;28;20224;-65
2022/03/22 00:29:08;;;;;;;22.73;11.30;;;;;8.40;102569.00;;;;5084539;28;20674;-68
2022/03/22 00:31:56;;;;;;;24.00;11.03;;;;;8.40;102562.00;;;;5083978;28;20730;-69
2022/03/22 00:34:45;;;;;;;22.73;11.07;;;;;8.40;102564.00;;;;5082076;28;20707;-67
2022/03/22 00:37:34;;;;;;;26.60;12.10;;;;;8.30;102579.00;;;;5093173;28;20844;-67
2022/03/22 00:40:22;;;;;;;22.03;10.57;;;;;8.30;102571.00;;;;5089322;28;20236;-68
2022/03/22 00:43:08;;;;;;;24.27;10.70;;;;;8.20;102576.00;;;;5097236;28;20742;-67
2022/03/22 00:45:55;;;;;;;21.47;11.13;;;;;8.30;102575.00;;;;5080694;28;20718;-67
2022/03/22 00:48:42;;;;;;;20.63;11.23;;;;;8.30;102571.00;;;;5079778;28;20251;-64
2022/03/22 00:51:28;;;;;;;21.33;11.07;;;;;8.20;102573.00;;;;5076397;28;20228;-67
2022/03/22 00:54:15;;;;;;;22.67;10.10;;;;;8.10;102579.00;;;;5075374;28;20718;-69
2022/03/22 00:57:02;;;;;;;24.27;11.87;;;;;8.30;102575.00;;;;5085157;28;20252;-67
2022/03/22 01:00:04;;;;;;;22.73;11.03;;;;;8.30;102570.00;;;;5100115;28;20235;-68
2022/03/22 01:02:51;;;;;;;24.93;11.07;;;;;8.20;102571.00;;;;5097190;28;20332;-68
2022/03/22 01:05:38;;;;;;;18.03;9.73;;;;;7.90;102556.00;;;;5096096;28;20325;-69
2022/03/22 01:08:24;;;;;;;19.27;9.77;;;;;7.80;102574.00;;;;5087488;28;20676;-66
2022/03/22 01:11:11;;;;;;;19.37;9.97;;;;;7.90;102574.00;;;;5104769;28;20230;-65
2022/03/22 01:13:58;;;;;;;19.67;10.30;;;;;8.00;102578.00;;;;5101604;27;20234;-70
2022/03/22 01:16:44;;;;;;;20.20;10.10;;;;;7.80;102565.00;;;;5102291;28;20280;-68
2022/03/22 01:19:30;;;;;;;17.27;9.07;;;;;7.80;102568.00;;;;5091675;28;20241;-68
2022/03/22 01:22:17;;;;;;;18.70;10.27;;;;;7.80;102568.00;;;;5104230;27;20230;-65
2022/03/22 01:25:03;;;;;;;18.10;10.00;;;;;7.80;102575.00;;;;5101633;28;20235;-66
2022/03/22 01:27:51;;;;;;;19.57;9.47;;;;;7.80;102576.00;;;;5104685;28;20288;-66
2022/03/22 01:30:38;;;;;;;20.47;10.07;;;;;7.80;102572.00;;;;5085485;28;20227;-67
2022/03/22 01:33:25;;;;;;;22.60;10.53;;;;;7.80;102563.00;;;;5069363;28;20370;-66
2022/03/22 01:36:11;;;;;;;17.50;9.40;;;;;7.70;102561.00;;;;5092783;28;20456;-66
2022/03/22 01:38:57;;;;;;;20.87;9.83;;;;;7.80;102562.00;;;;5103682;28;20261;-66
2022/03/22 01:41:44;;;;;;;21.40;9.70;;;;;7.60;102558.00;;;;5100383;28;20230;-68
2022/03/22 01:44:32;;;;;;;20.50;9.60;;;;;7.60;102556.00;;;;5091111;28;20242;-67
2022/03/22 01:47:20;;;;;;;16.50;9.47;;;;;7.40;102549.00;;;;5103547;28;20652;-68
2022/03/22 01:50:09;;;;;;;16.47;8.80;;;;;7.50;102540.00;;;;5103722;28;20246;-68
2022/03/22 01:52:56;;;;;;;19.60;9.70;;;;;7.50;102554.00;;;;5101327;28;20269;-68
2022/03/22 01:55:42;;;;;;;16.60;9.23;;;;;7.30;102548.00;;;;5104705;28;20230;-66
2022/03/22 01:58:29;;;;;;;17.27;8.83;;;;;7.30;102545.00;;;;5088043;28;20274;-68
2022/03/22 02:07:33;;;;;;;19.03;9.97;;;;;7.20;102537.00;;;;5094910;28;20234;-66
2022/03/22 02:10:20;;;;;;;17.43;9.50;;;;;7.20;102547.00;;;;5105621;28;20287;-67
2022/03/22 02:13:06;;;;;;;19.73;10.00;;;;;7.20;102534.00;;;;5085669;28;20246;-68
2022/03/22 02:15:56;;;;;;;20.83;11.83;;;;;7.20;102546.00;;;;5087779;28;20644;-66
2022/03/22 02:18:45;;;;;;;19.60;9.50;;;;;7.00;102536.00;;;;5095633;28;20234;-67
2022/03/22 02:21:32;;;;;;;20.00;10.93;;;;;6.90;102540.00;;;;5097176;28;20348;-63
2022/03/22 02:24:19;;;;;;;19.50;10.03;;;;;7.10;102536.00;;;;5100046;28;20227;-72
2022/03/22 02:27:07;;;;;;;12.83;8.47;;;;;7.00;102536.00;;;;5107722;27;20226;-67
2022/03/22 02:29:53;;;;;;;17.70;9.77;;;;;6.90;102533.00;;;;5081195;28;20235;-67
2022/03/22 02:32:40;;;;;;;20.93;10.57;;;;;6.90;102528.00;;;;5072995;28;20605;-67
2022/03/22 02:35:28;;;;;;;18.27;10.23;;;;;7.00;102528.00;;;;5091247;27;20608;-68
2022/03/22 02:38:14;;;;;;;26.80;9.93;;;;;6.80;102533.00;;;;5107529;27;20246;-68
2022/03/22 02:41:02;;;;;;;19.80;9.73;;;;;6.90;102521.00;;;;5106959;27;20233;-67
2022/03/22 02:43:50;;;;;;;18.70;10.07;;;;;6.90;102521.00;;;;5078905;28;20235;-68
2022/03/22 02:46:36;;;;;;;20.67;11.07;;;;;6.80;102527.00;;;;5067409;28;20230;-68
2022/03/22 02:49:22;;;;;;;19.50;9.90;;;;;6.90;102527.00;;;;5067866;28;20226;-68
2022/03/22 02:52:09;;;;;;;18.53;10.13;;;;;6.80;102542.00;;;;5087163;28;20228;-66
2022/03/22 02:54:57;;;;;;;21.00;10.23;;;;;6.90;102536.00;;;;5087110;28;20708;-66
2022/03/22 02:57:45;;;;;;;20.30;10.90;;;;;6.80;102537.00;;;;5084418;28;20284;-63
2022/03/22 03:00:31;;;;;;;15.70;9.50;;;;;6.80;102532.00;;;;5072842;28;20231;-67
2022/03/22 03:03:21;;;;;;;17.03;9.87;;;;;6.70;102531.00;;;;5086569;28;23040;-68
2022/03/22 03:06:08;;;;;;;24.20;11.10;;;;;6.80;102541.00;;;;5063206;28;20293;-67
2022/03/22 03:08:54;;;;;;;19.60;11.10;;;;;6.70;102545.00;;;;5075581;28;20227;-68
2022/03/22 03:11:40;;;;;;;19.57;10.57;;;;;6.60;102548.00;;;;5095155;28;20230;-66
2022/03/22 03:14:39;;;;;;;17.83;10.67;;;;;6.50;102537.00;;;;5101214;28;20231;-68
2022/03/22 03:17:26;;;;;;;23.63;11.20;;;;;6.60;102551.00;;;;5090931;27;20372;-67
2022/03/22 03:20:12;;;;;;;19.87;10.70;;;;;6.60;102537.00;;;;5081923;28;20915;-66
2022/03/22 03:22:58;;;;;;;23.70;11.53;;;;;6.60;102550.00;;;;5084068;28;20230;-66
2022/03/22 03:25:45;;;;;;;23.17;10.57;;;;;6.50;102552.00;;;;5065653;28;20222;-67
2022/03/22 03:28:31;;;;;;;21.90;11.07;;;;;6.50;102557.00;;;;5069260;28;20610;-65
2022/03/22 03:31:18;;;;;;;19.30;9.93;;;;;6.50;102549.00;;;;5086105;28;20226;-66
2022/03/22 03:34:05;;;;;;;20.63;10.00;;;;;6.40;102559.00;;;;5085955;28;20710;-67
2022/03/22 03:36:51;;;;;;;18.57;9.83;;;;;6.40;102562.00;;;;5083607;28;20231;-67
2022/03/22 03:39:40;;;;;;;22.10;11.30;;;;;6.20;102565.00;;;;5072884;28;20218;-68
2022/03/22 03:42:26;;;;;;;21.03;10.97;;;;;6.20;102568.00;;;;5070032;28;20231;-67
2022/03/22 03:48:19;;;;;;;20.37;10.90;;;;;6.20;102569.00;;;;5105997;28;20222;-67
2022/03/22 03:51:08;;;;;;;21.93;10.20;;;;;6.20;102570.00;;;;5106365;28;20300;-65
2022/03/22 03:53:54;;;;;;;20.10;11.07;;;;;6.20;102573.00;;;;5085020;28;20316;-65
2022/03/22 03:56:41;;;;;;;24.53;11.83;;;;;6.20;102568.00;;;;5073655;28;20250;-68
2022/03/22 03:59:27;;;;;;;20.87;10.83;;;;;6.20;102579.00;;;;5069323;28;20214;-66
2022/03/22 04:02:14;;;;;;;20.10;10.80;;;;;6.20;102570.00;;;;5082964;28;20236;-66
2022/03/22 04:05:01;;;;;;;22.33;10.87;;;;;6.30;102573.00;;;;5085634;28;20377;-69
2022/03/22 04:07:47;;;;;;;19.77;10.83;;;;;6.20;102562.00;;;;5067195;28;20234;-67
2022/03/22 04:10:34;;;;;;;18.23;9.37;;;;;6.20;102568.00;;;;5071337;28;20236;-68
2022/03/22 04:13:21;;;;;;;20.53;11.03;;;;;6.20;102580.00;;;;5083056;28;20360;-65
2022/03/22 04:16:07;;;;;;;17.83;9.93;;;;;6.10;102573.00;;;;5082953;28;20292;-67
2022/03/22 04:18:53;;;;;;;17.60;9.77;;;;;6.10;102574.00;;;;5080882;28;20361;-66
2022/03/22 04:21:40;;;;;;;22.77;11.07;;;;;6.10;102583.00;;;;5077925;28;20235;-65
2022/03/22 04:24:26;;;;;;;20.90;9.77;;;;;6.20;102578.00;;;;5083049;28;20230;-67
2022/03/22 04:33:21;;;;;;;19.50;10.40;;;;;6.10;102562.00;;;;5085080;28;20292;-69
2022/03/22 04:36:07;;;;;;;21.90;10.93;;;;;6.10;102593.00;;;;5086064;28;20325;-67
2022/03/22 04:38:55;;;;;;;20.70;10.10;;;;;6.00;102582.00;;;;5085361;28;20231;-65
2022/03/22 04:41:41;;;;;;;17.20;10.17;;;;;6.10;102579.00;;;;5074548;28;20308;-67
2022/03/22 04:44:28;;;;;;;19.97;10.37;;;;;6.10;102587.00;;;;5086856;28;20226;-70
2022/03/22 04:47:15;;;;;;;22.03;11.90;;;;;6.10;102586.00;;;;5073726;28;20236;-67
2022/03/22 04:50:01;;;;;;;22.37;10.53;;;;;6.10;102588.00;;;;5086782;28;20246;-67
2022/03/22 04:58:57;;;;;;;21.70;11.10;;;;;5.80;102582.00;;;;5077922;28;20226;-69
2022/03/22 05:01:43;;;;;;;23.60;10.20;;;;;6.00;102587.00;;;;5070831;28;20897;-69
2022/03/22 05:04:30;;;;;;;24.30;10.97;;;;;5.90;102580.00;;;;5070411;28;20243;-71
2022/03/22 05:07:16;;;;;;;20.27;10.57;;;;;5.90;102576.00;;;;5083924;28;20238;-66
2022/03/22 05:10:03;;;;;;;21.20;11.40;;;;;5.80;102585.00;;;;5086328;28;20675;-68
2022/03/22 05:12:50;;;;;;;19.97;10.23;;;;;5.70;102584.00;;;;5078081;28;20214;-67
2022/03/22 05:15:37;;;;;;;20.90;10.67;;;;;5.70;102587.00;;;;5072667;28;20717;-66
2022/03/22 05:18:23;;;;;;;18.17;9.77;;;;;5.60;102586.00;;;;5085858;28;20230;-69
2022/03/22 05:21:09;;;;;;;22.03;10.50;;;;;5.50;102592.00;;;;5078229;28;20234;-66
2022/03/22 05:23:55;;;;;;;20.30;11.00;;;;;5.60;102588.00;;;;5080844;28;20231;-66
2022/03/22 05:26:41;;;;;;;21.00;10.63;;;;;5.60;102594.00;;;;5073366;28;20632;-67
2022/03/22 05:29:29;;;;;;;19.37;10.13;;;;;5.60;102584.00;;;;5085450;28;20223;-70
2022/03/22 05:32:16;;;;;;;19.07;10.27;;;;;5.60;102593.00;;;;5079555;28;20232;-68
2022/03/22 05:35:02;;;;;;;21.33;10.60;;;;;5.60;102597.00;;;;5085949;28;20247;-66
2022/03/22 05:37:48;;;;;;;19.77;10.87;;;;;5.60;102594.00;;;;5075022;28;20227;-66
2022/03/22 05:40:35;;;;;;;20.50;11.07;;;;;5.70;102592.00;;;;5084247;28;20227;-68
2022/03/22 05:43:21;;;;;;;18.93;10.17;;;;;5.50;102590.00;;;;5085601;28;20227;-68
2022/03/22 05:46:09;;;;;;;20.53;11.00;;;;;5.60;102597.00;;;;5085769;28;20842;-67
2022/03/22 05:48:55;;;;;;;21.37;10.73;;;;;5.60;102592.00;;;;5066136;28;20830;-69
2022/03/22 05:51:41;;;;;;;20.83;12.43;;;;;5.70;102603.00;;;;5052383;28;20232;-69
2022/03/22 05:54:27;;;;;;;20.77;11.87;;;;;5.70;102605.00;;;;5074096;28;20321;-67
2022/03/22 05:57:14;;;;;;;19.60;11.17;;;;;5.80;102610.00;;;;5083603;28;20231;-67
2022/03/22 06:00:00;;;;;;;25.33;10.90;;;;;5.80;102604.00;;;;5077684;28;21049;-68
2022/03/22 06:02:52;;;;;;;21.07;11.60;;;;;5.70;102615.00;;;;5056140;28;20221;-67
2022/03/22 06:05:39;;;;;;;23.50;11.83;;;;;5.70;102617.00;;;;5052793;28;20582;-68
2022/03/22 06:08:27;;;;;;;19.77;11.10;;;;;5.70;102616.00;;;;5055946;28;20220;-69
2022/03/22 06:11:13;;;;;;;16.90;10.63;;;;;5.70;102623.00;;;;5068542;28;20228;-70
2022/03/22 06:14:00;;;;;;;21.47;10.60;;;;;5.80;102629.00;;;;5091542;28;20242;-71
2022/03/22 06:16:46;;;;;;;16.57;10.60;;;;;5.80;102635.00;;;;5098013;28;20250;-72
2022/03/22 06:19:34;;;;;;;17.77;10.73;;;;;5.70;102625.00;;;;5110856;28;20214;-73
2022/03/22 06:22:21;;;;;;;22.70;11.97;;;;;5.80;102634.00;;;;5086867;28;20241;-73
2022/03/22 06:25:09;;;;;;;21.50;11.27;;;;;5.90;102628.00;;;;5102008;28;20276;-73
2022/03/22 06:27:56;;;;;;;24.90;11.63;;;;;5.90;102627.00;;;;5114740;28;20243;-74
2022/03/22 06:30:43;;;;;;;19.43;11.50;;;;;5.90;102640.00;;;;5115196;28;20218;-73
2022/03/22 06:33:29;;;;;;;18.10;11.53;;;;;6.10;102638.00;;;;5114714;28;20234;-67
2022/03/22 06:36:17;;;;;;;21.37;11.50;;;;;6.20;102639.00;;;;5096521;28;20251;-68
2022/03/22 06:39:02;;;;;;;22.17;12.43;;;;;6.40;102638.00;;;;5083697;28;20226;-70
2022/03/22 06:41:49;;;;;;;22.27;11.60;;;;;6.40;102650.00;;;;5071434;28;20326;-70
2022/03/22 06:44:37;;;;;;;25.83;12.10;;;;;6.40;102642.00;;;;5084505;28;20767;-67
2022/03/22 06:47:23;;;;;;;25.03;12.50;;;;;6.50;102643.00;;;;5083851;28;20317;-70
2022/03/22 06:50:11;;;;;;;19.90;10.77;;;;;6.60;102640.00;;;;5087407;28;20226;-69
2022/03/22 06:52:59;;;;;;;21.67;12.93;;;;;6.80;102652.00;;;;5079931;28;20320;-71
2022/03/22 06:55:45;;;;;;;21.97;12.70;;;;;6.90;102654.00;;;;5066375;28;20234;-69
2022/03/22 06:58:31;;;;;;;23.53;12.63;;;;;7.00;102660.00;;;;5087267;28;20242;-70
2022/03/22 07:01:18;;;;;;;26.37;13.40;;;;;7.20;102675.00;;;;5086988;28;20235;-68
2022/03/22 07:04:05;;;;;;;21.70;12.63;;;;;7.20;102671.00;;;;5087552;28;20280;-68
2022/03/22 07:06:51;;;;;;;26.23;13.37;;;;;7.30;102664.00;;;;5075170;28;20353;-68
2022/03/22 07:09:39;;;;;;;25.63;13.40;;;;;7.40;102666.00;;;;5087530;28;20295;-68
2022/03/22 07:12:26;;;;;;;22.43;12.30;;;;;7.40;102666.00;;;;5107315;27;20230;-65
2022/03/22 07:15:12;;;;;;;25.97;12.63;;;;;7.50;102665.00;;;;5091215;28;20313;-66
2022/03/22 07:18:00;;;;;;;29.03;13.93;;;;;7.70;102674.00;;;;5084640;28;20609;-69
2022/03/22 07:20:46;;;;;;;22.73;12.07;;;;;7.70;102676.00;;;;5084471;28;20312;-68
2022/03/22 07:23:32;;;;;;;26.70;13.67;;;;;7.90;102663.00;;;;5100403;27;20257;-69
2022/03/22 07:26:19;;;;;;;25.50;12.67;;;;;8.00;102672.00;;;;5106665;28;20303;-68
2022/03/22 07:29:06;;;;;;;22.13;12.47;;;;;8.00;102664.00;;;;5106789;27;20301;-68
2022/03/22 07:31:52;;;;;;;22.40;12.27;;;;;8.10;102663.00;;;;5094143;27;20244;-69
2022/03/22 07:34:39;;;;;;;20.50;11.77;;;;;8.20;102666.00;;;;5090504;27;20614;-68
2022/03/22 07:37:26;;;;;;;23.03;11.93;;;;;8.30;102663.00;;;;5106232;28;20312;-67
2022/03/22 07:40:13;;;;;;;23.90;12.10;;;;;8.50;102667.00;;;;5090258;28;20242;-70
2022/03/22 07:43:01;;;;;;;23.33;12.53;;;;;8.60;102673.00;;;;5103917;27;20247;-69
2022/03/22 07:45:47;;;;;;;21.40;11.90;;;;;8.70;102671.00;;;;5092241;28;20231;-69
2022/03/22 07:48:34;;;;;;;25.10;12.53;;;;;8.80;102657.00;;;;5106331;27;20265;-71
2022/03/22 07:54:33;;;;;;;24.83;12.57;;;;;9.00;102679.00;;;;5049465;28;20635;-67
2022/03/22 07:57:19;;;;;;;24.13;11.73;;;;;9.20;102677.00;;;;5103778;28;20290;-69
2022/03/22 08:00:09;;;;;;;30.13;11.93;;;;;9.20;102658.00;;;;5104709;28;20251;-71
2022/03/22 08:02:56;;;;;;;22.03;11.50;;;;;9.30;102673.00;;;;5094149;28;20255;-69
2022/03/22 08:05:45;;;;;;;20.90;11.73;;;;;9.50;102677.00;;;;5090921;27;20367;-70
2022/03/22 08:08:32;;;;;;;18.87;10.90;;;;;9.60;102667.00;;;;5086586;28;20367;-69
2022/03/22 08:11:20;;;;;;;22.60;11.37;;;;;9.70;102680.00;;;;5102352;27;20290;-70
2022/03/22 08:14:06;;;;;;;18.93;10.13;;;;;9.80;102682.00;;;;5103198;28;20233;-69
2022/03/22 08:16:54;;;;;;;23.33;10.73;;;;;9.90;102687.00;;;;5092948;28;20242;-69
2022/03/22 08:19:42;;;;;;;19.50;11.07;;;;;10.20;102684.00;;;;5080520;28;20726;-68
2022/03/22 08:22:28;;;;;;;20.93;11.17;;;;;10.30;102677.00;;;;5102937;28;20228;-70
2022/03/22 08:25:14;;;;;;;22.20;11.87;;;;;10.50;102676.00;;;;5099266;27;20443;-71
2022/03/22 08:28:03;;;;;;;21.03;10.90;;;;;10.50;102683.00;;;;5105276;27;20254;-71
2022/03/22 08:30:49;;;;;;;19.60;10.87;;;;;10.70;102680.00;;;;5074097;28;20242;-69
2022/03/22 08:33:37;;;;;;;19.57;12.30;;;;;10.80;102683.00;;;;5082399;28;20230;-70
2022/03/22 08:36:23;;;;;;;23.07;11.67;;;;;10.90;102680.00;;;;5084634;28;20238;-71
2022/03/22 08:39:11;;;;;;;20.70;12.63;;;;;11.00;102679.00;;;;5078141;28;20599;-70
2022/03/22 08:41:57;;;;;;;15.40;10.27;;;;;11.20;102669.00;;;;5072466;28;20289;-69
2022/03/22 08:44:44;;;;;;;16.90;10.40;;;;;11.40;102674.00;;;;5071215;28;20231;-69
2022/03/22 08:47:31;;;;;;;19.67;10.20;;;;;11.60;102671.00;;;;5102153;27;20231;-69
2022/03/22 08:50:21;;;;;;;20.27;9.87;;;;;11.70;102674.00;;;;5104766;27;20272;-66
2022/03/22 08:53:07;;;;;;;19.10;9.40;;;;;11.80;102673.00;;;;5105680;28;20226;-71
2022/03/22 08:56:02;;;;;;;14.93;8.97;;;;;12.00;102667.00;;;;5074463;28;20254;-70
2022/03/22 08:58:52;;;;;;;15.77;9.03;;;;;12.30;102664.00;;;;5071088;28;20238;-71
2022/03/22 09:01:38;;;;;;;16.23;8.87;;;;;12.50;102686.00;;;;5085271;28;20215;-69
2022/03/22 09:07:29;;;;;;;17.60;8.70;;;;;13.00;102666.00;;;;5081293;28;20242;-69
2022/03/22 09:10:18;;;;;;;19.67;9.33;;;;;13.00;102639.00;;;;5104670;28;20288;-70
2022/03/22 09:13:05;;;;;;;14.87;8.70;;;;;13.00;102674.00;;;;5077879;28;20366;-68
2022/03/22 09:15:52;;;;;;;21.50;9.27;;;;;13.60;102667.00;;;;5056627;28;20239;-69
2022/03/22 09:18:39;;;;;;;17.33;9.77;;;;;13.60;102662.00;;;;5058063;28;20220;-68
2022/03/22 09:21:26;;;;;;;16.67;8.97;;;;;13.90;102665.00;;;;5071112;28;20814;-68
2022/03/22 09:24:14;;;;;;;16.20;9.37;;;;;13.80;102669.00;;;;5100531;28;20316;-70
2022/03/22 09:27:00;;;;;;;15.53;9.00;;;;;14.10;102663.00;;;;5073338;28;20594;-69
2022/03/22 09:29:47;;;;;;;21.07;10.00;;;;;14.10;102655.00;;;;5068461;28;20239;-67
2022/03/22 09:32:35;;;;;;;17.30;10.07;;;;;14.30;102664.00;;;;5084052;28;20236;-70
2022/03/22 09:35:21;;;;;;;15.80;8.40;;;;;14.60;102665.00;;;;5083984;28;20242;-69
2022/03/22 09:38:08;;;;;;;17.17;9.27;;;;;14.60;102653.00;;;;5084960;28;20233;-69
2022/03/22 09:40:55;;;;;;;16.00;9.40;;;;;14.70;102663.00;;;;5072757;28;20282;-71
2022/03/22 09:43:46;;;;;;;14.43;8.50;;;;;14.80;102652.00;;;;5086544;28;20236;-69
2022/03/22 09:46:33;;;;;;;15.93;8.37;;;;;15.00;102655.00;;;;5081784;28;20699;-70
2022/03/22 09:49:20;;;;;;;15.73;8.37;;;;;15.20;102662.00;;;;5083937;28;20221;-69
2022/03/22 09:52:07;;;;;;;16.70;8.73;;;;;15.40;102661.00;;;;5084565;28;20243;-71
2022/03/22 09:54:53;;;;;;;17.30;8.53;;;;;15.40;102653.00;;;;5069879;28;20227;-71
2022/03/22 09:57:41;;;;;;;19.40;9.50;;;;;15.50;102615.00;;;;5083608;28;20229;-69
2022/03/22 10:00:27;;;;;;;14.73;7.87;;;;;15.50;102642.00;;;;5098936;28;20293;-71
2022/03/22 10:03:18;;;;;;;17.20;9.30;;;;;15.80;102646.00;;;;5105352;28;20336;-70
2022/03/22 10:06:09;;;;;;;13.30;8.23;;;;;15.90;102648.00;;;;5097114;28;20731;-70
2022/03/22 10:08:55;;;;;;;15.23;8.43;;;;;15.90;102639.00;;;;5090718;28;20219;-70
2022/03/22 10:11:44;;;;;;;17.97;8.60;;;;;16.20;102639.00;;;;5058161;28;20266;-70
2022/03/22 10:14:37;;;;;;;17.83;8.97;;;;;16.30;102632.00;;;;5058281;28;20378;-70
2022/03/22 10:17:23;;;;;;;17.93;9.63;;;;;16.30;102638.00;;;;5056825;28;20328;-69
2022/03/22 10:20:21;;;;;;;15.33;8.53;;;;;16.30;102628.00;;;;5095040;28;20301;-71
2022/03/22 10:23:09;;;;;;;13.53;8.40;;;;;16.40;102635.00;;;;5095039;28;20324;-70
2022/03/22 10:26:04;;;;;;;15.40;8.87;;;;;16.70;102642.00;;;;5072986;28;20227;-70
2022/03/22 10:28:52;;;;;;;14.93;8.47;;;;;16.90;102632.00;;;;5072134;28;20299;-69
2022/03/22 10:31:40;;;;;;;14.63;8.60;;;;;16.80;102627.00;;;;5087262;28;20220;-70
2022/03/22 10:34:29;;;;;;;16.03;8.37;;;;;16.90;102614.00;;;;5086906;28;20239;-69
2022/03/22 10:37:25;;;;;;;19.30;9.07;;;;;17.10;102627.00;;;;5087678;28;20273;-68
2022/03/22 10:40:24;;;;;;;13.27;8.10;;;;;17.40;102629.00;;;;5067466;28;20240;-71
2022/03/22 10:43:11;;;;;;;13.30;8.03;;;;;17.50;102628.00;;;;5079913;28;20698;-71
2022/03/22 10:46:00;;;;;;;15.27;8.37;;;;;17.90;102628.00;;;;5060932;28;20636;-73
2022/03/22 10:48:49;;;;;;;15.27;8.33;;;;;17.70;102627.00;;;;5074407;28;20238;-72
2022/03/22 10:51:37;;;;;;;14.07;8.60;;;;;17.60;102625.00;;;;5086773;28;20231;-70
2022/03/22 10:54:24;;;;;;;12.30;7.43;;;;;17.90;102619.00;;;;5074930;28;20404;-69
2022/03/22 10:57:14;;;;;;;15.30;8.03;;;;;18.10;102626.00;;;;5072321;28;20227;-70
2022/03/22 11:00:05;;;;;;;16.80;8.17;;;;;18.30;102631.00;;;;5067520;28;20251;-66
2022/03/22 11:02:53;;;;;;;14.87;8.47;;;;;18.30;102625.00;;;;5093503;28;20222;-72
2022/03/22 11:05:42;;;;;;;14.93;7.83;;;;;18.40;102619.00;;;;5083733;28;20268;-74
2022/03/22 11:08:29;;;;;;;16.00;7.97;;;;;18.50;102617.00;;;;5059586;28;20252;-73
2022/03/22 11:11:16;;;;;;;13.33;7.33;;;;;18.60;102620.00;;;;5107063;27;20297;-70
2022/03/22 11:14:03;;;;;;;13.43;6.80;;;;;18.80;102614.00;;;;5087300;28;20303;-71
2022/03/22 11:16:50;;;;;;;13.53;7.90;;;;;18.70;102611.00;;;;5060800;28;20277;-70
2022/03/22 11:19:40;;;;;;;13.93;7.10;;;;;18.70;102610.00;;;;5061170;28;20228;-71
2022/03/22 11:22:29;;;;;;;15.20;6.80;;;;;19.00;102602.00;;;;5053173;28;20598;-71
2022/03/22 11:25:19;;;;;;;17.13;7.23;;;;;19.10;102599.00;;;;5062689;28;20245;-71
2022/03/22 11:28:07;;;;;;;12.33;6.60;;;;;19.20;102604.00;;;;5067315;28;20247;-71
2022/03/22 11:30:53;;;;;;;12.37;6.27;;;;;19.30;102605.00;;;;5057202;28;20733;-69
2022/03/22 11:36:47;;;;;;;12.03;6.73;;;;;19.40;102603.00;;;;5081383;28;21410;-71
2022/03/22 11:42:39;;;;;;;11.20;5.77;;;;;19.40;102590.00;;;;5081688;28;20709;-70
2022/03/22 11:45:26;;;;;;;10.33;6.00;;;;;19.50;102599.00;;;;5078987;28;20233;-70
2022/03/22 11:48:12;;;;;;;9.93;5.57;;;;;19.50;102600.00;;;;5060814;28;20623;-70
2022/03/22 11:51:04;;;;;;;9.53;5.90;;;;;19.50;102596.00;;;;5059294;28;20302;-70
2022/03/22 11:53:51;;;;;;;13.97;6.10;;;;;19.70;102590.00;;;;5062830;28;20223;-70
2022/03/22 11:56:46;;;;;;;14.60;6.17;;;;;19.80;102581.00;;;;5062738;28;20359;-69
2022/03/22 11:59:40;;;;;;;14.23;5.37;;;;;19.70;102597.00;;;;5060632;28;20259;-70
2022/03/22 12:02:30;;;;;;;13.63;6.73;;;;;19.90;102593.00;;;;5057579;28;20360;-69
2022/03/22 12:05:22;;;;;;;10.80;6.20;;;;;20.20;102590.00;;;;5058525;28;20236;-70
2022/03/22 12:08:10;;;;;;;11.40;6.30;;;;;20.30;102598.00;;;;5059381;28;20239;-70
2022/03/22 12:10:58;;;;;;;13.03;6.50;;;;;20.20;102590.00;;;;5062726;28;20733;-71
2022/03/22 12:13:47;;;;;;;11.90;6.70;;;;;20.40;102583.00;;;;5059383;28;20303;-72
2022/03/22 12:16:35;;;;;;;10.73;6.27;;;;;20.70;102578.00;;;;5085274;28;20699;-72
2022/03/22 12:19:26;;;;;;;13.50;8.07;;;;;20.90;102578.00;;;;5076001;28;20767;-69
2022/03/22 12:22:13;;;;;;;16.00;7.63;;;;;20.80;102570.00;;;;5094636;28;20273;-69
2022/03/22 12:25:01;;;;;;;12.80;7.23;;;;;20.60;102572.00;;;;5081030;28;20379;-70
2022/03/22 12:27:53;;;;;;;14.23;7.63;;;;;20.80;102571.00;;;;5082632;28;20329;-70
2022/03/22 12:30:43;;;;;;;17.93;7.93;;;;;21.10;102580.00;;;;5086793;28;20279;-69
2022/03/22 12:33:37;;;;;;;15.83;7.77;;;;;21.00;102574.00;;;;5085954;28;20601;-67
2022/03/22 12:36:24;;;;;;;16.17;7.73;;;;;20.90;102564.00;;;;5085137;28;20251;-73
2022/03/22 12:39:10;;;;;;;16.63;7.93;;;;;21.00;102563.00;;;;5093852;27;20728;-73
2022/03/22 12:41:57;;;;;;;12.40;7.63;;;;;21.00;102567.00;;;;5070627;28;20727;-70
2022/03/22 12:44:43;;;;;;;13.63;8.20;;;;;21.00;102551.00;;;;5082329;28;20272;-70
2022/03/22 12:47:52;;;;;;;13.37;7.67;;;;;20.80;102559.00;;;;5084625;28;20237;-72
2022/03/22 12:50:38;;;;;;;13.23;8.23;;;;;20.90;102556.00;;;;5082089;28;20310;-69
2022/03/22 12:53:25;;;;;;;12.93;7.53;;;;;20.70;102559.00;;;;5104558;28;20229;-72
2022/03/22 12:56:15;;;;;;;12.87;7.63;;;;;20.60;102552.00;;;;5093679;28;20235;-69
2022/03/22 12:59:01;;;;;;;16.10;7.90;;;;;21.00;102548.00;;;;5089652;28;20236;-69
2022/03/22 13:01:57;;;;;;;13.97;7.43;;;;;21.20;102556.00;;;;5103757;28;20230;-70
2022/03/22 13:04:47;;;;;;;12.47;7.47;;;;;21.10;102522.00;;;;5104725;28;20266;-69
2022/03/22 13:07:35;;;;;;;13.93;7.20;;;;;21.30;102552.00;;;;5104281;28;20339;-68
2022/03/22 13:15:01;;;;;;;11.37;6.60;;;;;21.50;102540.00;;;;5093136;28;21011;-71
2022/03/22 13:16:34;;;;;;;11.93;6.90;;;;;21.70;102542.00;;;;5097390;28;20237;-69
2022/03/22 13:19:20;;;;;;;12.20;6.97;;;;;21.80;102537.00;;;;5103175;28;20353;-67
2022/03/22 13:22:18;;;;;;;8.50;5.80;;;;;21.90;102530.00;;;;5090724;28;20234;-70
2022/03/22 13:25:07;;;;;;;12.47;5.40;;;;;22.10;102529.00;;;;5097998;28;20583;-69
2022/03/22 13:27:59;;;;;;;11.83;6.33;;;;;22.00;102536.00;;;;5085207;28;20230;-69
2022/03/22 13:30:46;;;;;;;11.43;6.63;;;;;22.10;102540.00;;;;5100905;28;20779;-69
2022/03/22 13:33:34;;;;;;;10.70;6.73;;;;;21.90;102535.00;;;;5103938;28;20231;-68
2022/03/22 13:36:20;;;;;;;11.87;6.97;;;;;21.80;102517.00;;;;5104325;28;20863;-67
2022/03/22 13:39:08;;;;;;;12.60;7.23;;;;;22.00;102530.00;;;;5090513;28;20223;-71
2022/03/22 13:42:05;;;;;;;13.33;7.90;;;;;22.30;102534.00;;;;5103680;28;20285;-69
2022/03/22 13:44:55;;;;;;;13.03;7.23;;;;;22.20;102515.00;;;;5101634;28;20805;-70
2022/03/22 13:47:45;;;;;;;13.53;7.93;;;;;22.10;102526.00;;;;5104389;28;20234;-72
2022/03/22 13:50:33;;;;;;;13.57;7.67;;;;;22.40;102517.00;;;;5103838;28;20238;-68
2022/03/22 13:53:20;;;;;;;17.87;8.10;;;;;22.40;102518.00;;;;5092769;28;20223;-68
2022/03/22 13:56:09;;;;;;;15.07;7.67;;;;;22.50;102523.00;;;;5094378;28;20230;-71
2022/03/22 13:58:55;;;;;;;14.30;7.70;;;;;22.30;102515.00;;;;5107921;28;20217;-69
2022/03/22 14:01:42;;;;;;;14.77;8.93;;;;;22.10;102520.00;;;;5108036;28;20272;-70
2022/03/22 14:04:29;;;;;;;19.20;8.73;;;;;22.20;102513.00;;;;5107667;28;20317;-71
2022/03/22 14:07:15;;;;;;;16.20;8.67;;;;;21.90;102511.00;;;;5105465;28;20253;-70
2022/03/22 14:10:02;;;;;;;16.37;9.30;;;;;21.90;102512.00;;;;5107685;28;20321;-70
2022/03/22 14:12:49;;;;;;;16.00;8.77;;;;;21.60;102522.00;;;;5107206;28;20235;-72
2022/03/22 14:15:36;;;;;;;17.97;9.10;;;;;22.00;102511.00;;;;5104389;28;20281;-70
2022/03/22 14:18:23;;;;;;;15.13;8.90;;;;;21.90;102510.00;;;;5107016;28;20288;-69